Mozyr, Belarus
Current Conditions -  °F | °C
As of 7:00 AM on Sunday 26 Oct 2014 (Local Time) from UMGG Reporting Station
Clear Clear  
Wind Chill:   Ceiling: Unl
Heat Index: 18°   Visibility: 4mi
Dew Point: 12°   Wind: 7mph
Humidity: 79%   Direction: 150°SSE
Pressure: 30.62"   Gusts: NA
Location:  52.05°N, 29.26°E
Report Text: UMGG 260500Z 15003MPS 7000 NSC M08/M11 Q1037 R10/CLRD// NOSIG
Loading
Personal Weather Stations






























Interactive Weather Map
Tropical Storm Tracking
New forecast layout! Learn more

10-Day Weather Forecast

Advertisements
Track Severe Weather on mobile